Aviation Digital Data Service (ADDS)

Output produced by METARs form (0725 UTC 24 March 2019)
found at http://www.aviationweather.gov/metar/data/
 
KAID 240715Z AUTO 11004KT 10SM SCT110 04/M03 A3021 RMK AO2 T00361026
KANQ 240715Z AUTO 00000KT 10SM CLR M01/M02 A3020 RMK AO2
KGWB 240715Z AUTO 00000KT 10SM CLR 00/M02 A3021 RMK AO2
KBMG 240653Z AUTO 00000KT 10SM CLR 05/M01 A3023 RMK AO2 SLP238 T00501006 $
KBMG 240520Z 2406/2506 00000KT P6SM BKN150 
     FM241600 18007KT P6SM VCSH OVC040 
     FM241800 18007KT 4SM -SHRA BR OVC029 
     FM242300 18006KT 4SM -SHRA BR OVC014 
     FM250300 19005KT 5SM -SHRA BR OVC008 AMD LTD TO CLD VIS AND WIND TIL 241300
       
KBAK 240148Z 11003KT 10SM SKC 05/M03 A3026 RMK LAST
KCFJ 240715Z AUTO 16004KT 10SM BKN110 05/M01 A3021 RMK AO2 T00451010
KEVV 240654Z AUTO 00000KT 10SM SCT120 07/03 A3022 RMK AO2 SLP235 T00720033
KEVV 240520Z 2406/2506 VRB03KT P6SM BKN180 
     FM241200 VRB04KT P6SM VCSH OVC090 
     FM242100 20009KT P6SM VCSH BKN050 
     FM250000 19005KT P6SM -SHRA BKN035 
     FM250300 21004KT 4SM SHRA BR OVC030
       
KFWA 240654Z 00000KT 10SM SCT150 OVC240 01/M02 A3022 RMK AO2 SLP238 T00111022
KFWA 240528Z 2406/2506 19003KT P6SM BKN200 
     FM241400 22006KT P6SM VCSH OVC070 
     FM242200 22004KT 5SM -RA BR OVC050
       
KFKR 240715Z AUTO 19003KT 10SM OVC110 06/00 A3023 RMK AO2 T00551005 TSNO
KFRH 240715Z AUTO 13003KT 10SM CLR 08/M18 A3023 RMK AO1
KGYY 240715Z AUTO 00000KT 10SM CLR 06/M04 A3020 RMK AO2 T00631045
KGYY 240544Z 2406/2506 15005KT P6SM SCT100 BKN200 
     FM241100 18006KT P6SM OVC050 
     FM241500 16008KT P6SM VCSH SCT020 OVC035 
     FM241900 14005KT 6SM -SHRA OVC025 
     FM242300 05007KT 5SM -SHRA OVC010 
     FM250100 02014G21KT 4SM -SHRA BR SCT007 OVC010
       
KGSH 240653Z AUTO 00000KT 10SM CLR 01/M02 A3020 RMK AO2 SLP235 T00061022
KHNB 240656Z AUTO 12003KT 10SM CLR 07/01 A3024 RMK AO2 SLP242 T00670006
KHNB 240520Z 2406/2506 VRB04KT P6SM BKN130 
     FM241500 18008KT P6SM BKN050 
     PROB30 2415/2419 -SHRA 
     FM250000 17004KT P6SM OVC028 
     FM250400 17004KT 5SM -SHRA OVC023
       
KHHG 240715Z AUTO 00000KT 10SM CLR 00/M03 A3021 RMK AO2 T00011032
KEYE 240653Z AUTO 00000KT 10SM FEW110 04/01 A3022 RMK AO2 SLP235 T00440006
KHFY 240615Z AUTO 00000KT 10SM CLR 03/M03 A3023 RMK AO2 T00321030
KTYQ 240715Z AUTO 00000KT 10SM BKN120 02/01 A3023 RMK AO2 T00230009
KIND 240654Z 20003KT 10SM FEW110 BKN170 OVC200 06/M02 A3022 RMK AO2 SLP238 T00611022
KIND 240520Z 2406/2512 VRB03KT P6SM BKN150 
     FM241600 17006KT P6SM VCSH OVC040 
     FM241800 17006KT 4SM -SHRA BR OVC022 
     FM250400 11005KT 4SM -SHRA BR OVC004
       
KMQJ 240715Z AUTO 21003KT 10SM SCT100 BKN120 03/02 A3023 RMK AO1
KJVY 240715Z AUTO 00000KT 10SM CLR 04/01 A3026 RMK AO2 T00370006
KC62 240715Z AUTO 20003KT 10SM CLR 00/M04 A3021 RMK AO2 T00051043
KOXI 240715Z AUTO 24003KT 10SM CLR 03/M03 A3020 RMK AO1
KOKK 240656Z AUTO 14004KT 10SM SCT120 02/M02 A3022 RMK AO2 SLP241 T00221017 FZRANO PNO $
KLAF 240654Z AUTO 05003KT 10SM FEW075 OVC095 04/M02 A3019 RMK AO2 SLP227 T00391022
KLAF 240520Z 2406/2506 VRB03KT P6SM BKN150 
     FM241400 15005KT P6SM VCSH OVC050 
     FM241700 16007KT 5SM -SHRA BR OVC030 
     FM242100 17006KT 4SM -SHRA BR OVC010 
     FM250000 14005KT 4SM -SHRA BR OVC008 AMD LTD TO CLD VIS AND WIND TIL 241300
       
KPPO 240715Z AUTO 00000KT 10SM CLR 02/M01 A3020 RMK AO2 T00151010
KGGP 240713Z AUTO 27003KT 10SM BKN120 03/M02 A3021 RMK AO2
KIMS 240715Z AUTO 00000KT 10SM CLR 05/00 A3026 RMK AO1
KMZZ 240715Z AUTO 00000KT 10SM CLR 02/M03 A3021 RMK AO2 T00221032
KMGC 240715Z AUTO 00000KT 10SM CLR 01/M02 A3020 RMK AO2
KMCX 240715Z AUTO 00000KT 10SM OVC110 04/M02 A3020 RMK AO2 T00371023
KMIE 240653Z AUTO 00000KT 10SM CLR 03/M02 A3022 RMK AO2 SLP233 T00331017
KGUS 240456Z AUTO 14004KT 10SM CLR 02/M04 A3022 RMK AO2 SLP243 T00211040 401101072 $
TAF KGUS 240300Z 2403/2509 VRB06KT 9999 SCT150 QNH3016INS 
     BECMG 2409/2410 VRB06KT 9999 SCT060 BKN100 QNH3014INS 
     BECMG 2414/2415 VRB06KT 9999 BKN040 OVC060 620804 QNH3008INS 
     BECMG 2420/2421 VRB06KT 9000 -RA BKN006 OVC010 620804 QNH3003INS 
     BECMG 2502/2503 04009KT 8000 -RA BR OVC005 620804 QNH3006INS 
     BECMG 2507/2508 03012KT 9999 NSW OVC009 620804 QNH3007INS TX08/2417Z
TN01/2408Z
       
KC65 240715Z AUTO 00000KT 10SM CLR 01/M02 A3020 RMK A01
KPLD 240715Z AUTO 00000KT 10SM CLR 02/00 A3022 RMK AO2
KRZL 240715Z AUTO 00000KT 10SM OVC110 03/00 A3020 RMK AO2
KRID 240715Z AUTO 17004KT 10SM CLR 03/M03 A3023 RMK AO2
KRCR 240715Z AUTO 00000KT 10SM CLR 03/M02 A3020 RMK AO2
KGEZ 240653Z AUTO 00000KT 10SM FEW080 BKN110 04/01 A3022 RMK AO2 SLP236 T00390006
KHUF 240653Z 00000KT 10SM BKN110 06/02 A3021 RMK AO2 SLP233 T00560017
KHUF 240520Z 2406/2506 VRB03KT P6SM OVC150 
     FM241400 15006KT P6SM VCSH OVC050 
     FM241600 16008KT 5SM -SHRA BR OVC035 
     FM242000 18009KT 4SM -SHRA BR OVC012 
     FM250200 18005KT 4SM -SHRA BR OVC008
       
KVPZ 240656Z AUTO 15003KT 10SM CLR 06/M06 A3020 RMK AO2 SLP230 T00561056 TSNO
KASW 240715Z AUTO 00000KT 10SM CLR 00/M03 A3021 RMK AO2
KDCY 240715Z AUTO 14003KT 10SM CLR 06/02 A3021 RMK AO2 T00600023